sensor_id;sensor_type;location;lat;lon;timestamp;pressure;altitude;pressure_sealevel;temperature;humidity
18569;BME280;14780;48.316;-1.050;2024-02-14T00:02:19;99156.56;;;24.74;37.02
18569;BME280;14780;48.316;-1.050;2024-02-14T00:05:04;99156.03;;;24.72;37.10
18569;BME280;14780;48.316;-1.050;2024-02-14T00:07:49;99144.81;;;24.69;37.20
18569;BME280;14780;48.316;-1.050;2024-02-14T00:10:33;99143.44;;;24.71;37.03
18569;BME280;14780;48.316;-1.050;2024-02-14T00:13:18;99144.25;;;24.67;37.18
18569;BME280;14780;48.316;-1.050;2024-02-14T00:16:02;99154.91;;;24.68;37.17
18569;BME280;14780;48.316;-1.050;2024-02-14T00:18:47;99151.91;;;24.75;37.06
18569;BME280;14780;48.316;-1.050;2024-02-14T00:21:32;99158.19;;;24.70;37.13
18569;BME280;14780;48.316;-1.050;2024-02-14T00:24:19;99165.03;;;24.78;36.88
18569;BME280;14780;48.316;-1.050;2024-02-14T00:27:04;99162.03;;;24.74;36.95
18569;BME280;14780;48.316;-1.050;2024-02-14T00:29:49;99171.88;;;24.70;37.06
18569;BME280;14780;48.316;-1.050;2024-02-14T00:32:33;99174.34;;;24.77;36.92
18569;BME280;14780;48.316;-1.050;2024-02-14T00:35:18;99165.88;;;24.78;37.02
18569;BME280;14780;48.316;-1.050;2024-02-14T00:38:02;99169.13;;;24.75;37.00
18569;BME280;14780;48.316;-1.050;2024-02-14T00:40:47;99174.63;;;24.75;36.94
18569;BME280;14780;48.316;-1.050;2024-02-14T00:43:32;99172.97;;;24.74;36.96
18569;BME280;14780;48.316;-1.050;2024-02-14T00:46:17;99178.97;;;24.76;36.98
18569;BME280;14780;48.316;-1.050;2024-02-14T00:49:02;99170.50;;;24.78;37.07
18569;BME280;14780;48.316;-1.050;2024-02-14T00:51:47;99175.44;;;24.76;37.08
18569;BME280;14780;48.316;-1.050;2024-02-14T00:54:32;99167.50;;;24.74;36.91
18569;BME280;14780;48.316;-1.050;2024-02-14T00:57:17;99162.03;;;24.79;36.94
18569;BME280;14780;48.316;-1.050;2024-02-14T01:00:04;99164.78;;;24.79;36.83
18569;BME280;14780;48.316;-1.050;2024-02-14T01:02:50;99160.94;;;24.80;36.56
18569;BME280;14780;48.316;-1.050;2024-02-14T01:05:35;99155.72;;;24.84;36.73
18569;BME280;14780;48.316;-1.050;2024-02-14T01:08:20;99158.19;;;24.85;36.78
18569;BME280;14780;48.316;-1.050;2024-02-14T01:11:05;99137.09;;;24.81;36.81
18569;BME280;14780;48.316;-1.050;2024-02-14T01:13:50;99140.69;;;24.81;36.74
18569;BME280;14780;48.316;-1.050;2024-02-14T01:16:43;99133.03;;;24.78;36.88
18569;BME280;14780;48.316;-1.050;2024-02-14T01:19:28;99140.69;;;24.81;36.77
18569;BME280;14780;48.316;-1.050;2024-02-14T01:22:13;99143.41;;;24.76;36.91
18569;BME280;14780;48.316;-1.050;2024-02-14T01:25:01;99127.00;;;24.76;36.77
18569;BME280;14780;48.316;-1.050;2024-02-14T01:27:45;99135.19;;;24.81;36.87
18569;BME280;14780;48.316;-1.050;2024-02-14T01:30:30;99143.69;;;24.80;36.76
18569;BME280;14780;48.316;-1.050;2024-02-14T01:33:15;99149.44;;;24.73;36.89
18569;BME280;14780;48.316;-1.050;2024-02-14T01:36:01;99156.00;;;24.77;36.95
18569;BME280;14780;48.316;-1.050;2024-02-14T01:38:45;99154.09;;;24.78;36.78
18569;BME280;14780;48.316;-1.050;2024-02-14T01:41:30;99144.50;;;24.70;36.86
18569;BME280;14780;48.316;-1.050;2024-02-14T01:44:15;99143.41;;;24.76;36.94
18569;BME280;14780;48.316;-1.050;2024-02-14T01:47:01;99147.25;;;24.70;37.05
18569;BME280;14780;48.316;-1.050;2024-02-14T01:49:46;99150.81;;;24.76;36.90
18569;BME280;14780;48.316;-1.050;2024-02-14T01:52:31;99156.56;;;24.74;36.84
18569;BME280;14780;48.316;-1.050;2024-02-14T01:55:16;99152.72;;;24.75;36.82
18569;BME280;14780;48.316;-1.050;2024-02-14T01:58:01;99163.13;;;24.68;37.05
18569;BME280;14780;48.316;-1.050;2024-02-14T02:00:48;99158.19;;;24.70;36.96
18569;BME280;14780;48.316;-1.050;2024-02-14T02:03:33;99159.03;;;24.66;37.04
18569;BME280;14780;48.316;-1.050;2024-02-14T02:06:20;99166.97;;;24.67;37.02
18569;BME280;14780;48.316;-1.050;2024-02-14T02:09:05;99170.25;;;24.69;36.88
18569;BME280;14780;48.316;-1.050;2024-02-14T02:11:53;99170.81;;;24.66;36.87
18569;BME280;14780;48.316;-1.050;2024-02-14T02:14:41;99179.53;;;24.68;36.98
18569;BME280;14780;48.316;-1.050;2024-02-14T02:17:25;99184.22;;;24.68;36.91
18569;BME280;14780;48.316;-1.050;2024-02-14T02:20:10;99183.94;;;24.64;37.04
18569;BME280;14780;48.316;-1.050;2024-02-14T02:22:55;99188.03;;;24.67;37.05
18569;BME280;14780;48.316;-1.050;2024-02-14T02:25:43;99184.22;;;24.68;37.02
18569;BME280;14780;48.316;-1.050;2024-02-14T02:28:28;99182.84;;;24.65;37.09
18569;BME280;14780;48.316;-1.050;2024-02-14T02:31:13;99185.03;;;24.68;37.04
18569;BME280;14780;48.316;-1.050;2024-02-14T02:33:57;99191.03;;;24.70;36.86
18569;BME280;14780;48.316;-1.050;2024-02-14T02:36:42;99188.28;;;24.70;37.04
18569;BME280;14780;48.316;-1.050;2024-02-14T02:39:28;99186.13;;;24.72;36.92
18569;BME280;14780;48.316;-1.050;2024-02-14T02:42:13;99180.91;;;24.76;36.82
18569;BME280;14780;48.316;-1.050;2024-02-14T02:44:59;99186.38;;;24.71;36.80
18569;BME280;14780;48.316;-1.050;2024-02-14T02:47:43;99186.66;;;24.74;36.87
18569;BME280;14780;48.316;-1.050;2024-02-14T02:50:27;99176.81;;;24.73;36.92
18569;BME280;14780;48.316;-1.050;2024-02-14T02:53:13;99168.59;;;24.73;36.99
18569;BME280;14780;48.316;-1.050;2024-02-14T02:55:58;99168.59;;;24.78;36.87
18569;BME280;14780;48.316;-1.050;2024-02-14T02:58:44;99160.13;;;24.75;36.89
18569;BME280;14780;48.316;-1.050;2024-02-14T03:01:35;99162.56;;;24.81;36.67
18569;BME280;14780;48.316;-1.050;2024-02-14T03:04:21;99174.63;;;24.75;36.85
18569;BME280;14780;48.316;-1.050;2024-02-14T03:07:06;99168.59;;;24.78;36.78
18569;BME280;14780;48.316;-1.050;2024-02-14T03:09:53;99165.31;;;24.81;36.76
18569;BME280;14780;48.316;-1.050;2024-02-14T03:12:38;99166.41;;;24.80;36.89
18569;BME280;14780;48.316;-1.050;2024-02-14T03:15:23;99166.41;;;24.80;36.85
18569;BME280;14780;48.316;-1.050;2024-02-14T03:18:10;99169.16;;;24.80;36.73
18569;BME280;14780;48.316;-1.050;2024-02-14T03:20:55;99169.69;;;24.82;36.81
18569;BME280;14780;48.316;-1.050;2024-02-14T03:23:40;99173.25;;;24.78;36.75
18569;BME280;14780;48.316;-1.050;2024-02-14T03:26:25;99168.56;;;24.83;36.77
18569;BME280;14780;48.316;-1.050;2024-02-14T03:29:11;99170.25;;;24.79;36.67
18569;BME280;14780;48.316;-1.050;2024-02-14T03:31:56;99174.34;;;24.77;36.74
18569;BME280;14780;48.316;-1.050;2024-02-14T03:34:43;99178.16;;;24.81;36.71
18569;BME280;14780;48.316;-1.050;2024-02-14T03:37:27;99168.59;;;24.78;36.72
18569;BME280;14780;48.316;-1.050;2024-02-14T03:40:12;99168.34;;;24.75;36.79
18569;BME280;14780;48.316;-1.050;2024-02-14T03:42:57;99165.88;;;24.78;36.83
18569;BME280;14780;48.316;-1.050;2024-02-14T03:45:42;99162.59;;;24.61;37.02
18569;BME280;14780;48.316;-1.050;2024-02-14T03:48:27;99159.03;;;24.66;36.92
18569;BME280;14780;48.316;-1.050;2024-02-14T03:51:11;99154.94;;;24.73;36.88
18569;BME280;14780;48.316;-1.050;2024-02-14T03:53:56;99156.56;;;24.74;36.88
18569;BME280;14780;48.316;-1.050;2024-02-14T03:56:41;99154.38;;;24.71;36.85
18569;BME280;14780;48.316;-1.050;2024-02-14T03:59:26;99152.19;;;24.68;36.82
18569;BME280;14780;48.316;-1.050;2024-02-14T04:02:10;99157.38;;;24.65;37.05
18569;BME280;14780;48.316;-1.050;2024-02-14T04:04:55;99153.03;;;24.69;36.90
18569;BME280;14780;48.316;-1.050;2024-02-14T04:07:40;99156.59;;;24.64;37.04
18569;BME280;14780;48.316;-1.050;2024-02-14T04:10:24;99163.69;;;24.65;36.88
18569;BME280;14780;48.316;-1.050;2024-02-14T04:13:09;99160.94;;;24.70;36.80
18569;BME280;14780;48.316;-1.050;2024-02-14T04:15:54;99164.50;;;24.66;37.02
18569;BME280;14780;48.316;-1.050;2024-02-14T04:18:39;99175.16;;;24.62;36.90
18569;BME280;14780;48.316;-1.050;2024-02-14T04:21:23;99175.44;;;24.66;36.98
18569;BME280;14780;48.316;-1.050;2024-02-14T04:24:08;99169.69;;;24.62;37.05
18569;BME280;14780;48.316;-1.050;2024-02-14T04:26:54;99177.38;;;24.65;36.93
18569;BME280;14780;48.316;-1.050;2024-02-14T04:29:41;99174.59;;;24.70;36.95
18569;BME280;14780;48.316;-1.050;2024-02-14T04:32:29;99174.06;;;24.68;37.01
18569;BME280;14780;48.316;-1.050;2024-02-14T04:35:14;99185.84;;;24.69;36.92
18569;BME280;14780;48.316;-1.050;2024-02-14T04:37:59;99175.72;;;24.69;36.89
18569;BME280;14780;48.316;-1.050;2024-02-14T04:40:43;99176.81;;;24.68;36.89
18569;BME280;14780;48.316;-1.050;2024-02-14T04:43:28;99179.00;;;24.71;36.90
18569;BME280;14780;48.316;-1.050;2024-02-14T04:46:13;99182.00;;;24.70;36.86
18569;BME280;14780;48.316;-1.050;2024-02-14T04:48:57;99179.53;;;24.68;36.97
18569;BME280;14780;48.316;-1.050;2024-02-14T04:51:42;99175.19;;;24.72;36.81
18569;BME280;14780;48.316;-1.050;2024-02-14T04:54:26;99168.88;;;24.72;36.89
18569;BME280;14780;48.316;-1.050;2024-02-14T04:57:12;99173.81;;;24.75;36.77
18569;BME280;14780;48.316;-1.050;2024-02-14T04:59:57;99187.19;;;24.81;36.65
18569;BME280;14780;48.316;-1.050;2024-02-14T05:02:41;99189.66;;;24.78;36.67
18569;BME280;14780;48.316;-1.050;2024-02-14T05:05:27;99175.44;;;24.76;36.75
18569;BME280;14780;48.316;-1.050;2024-02-14T05:08:12;99187.72;;;24.83;36.64
18569;BME280;14780;48.316;-1.050;2024-02-14T05:10:57;99186.09;;;24.77;36.78
18569;BME280;14780;48.316;-1.050;2024-02-14T05:13:41;99181.47;;;24.83;36.57
18569;BME280;14780;48.316;-1.050;2024-02-14T05:16:27;99193.25;;;24.78;36.67
18569;BME280;14780;48.316;-1.050;2024-02-14T05:19:12;99176.53;;;24.80;36.58
18569;BME280;14780;48.316;-1.050;2024-02-14T05:21:57;99178.72;;;24.78;36.75
18569;BME280;14780;48.316;-1.050;2024-02-14T05:24:42;99188.84;;;24.77;36.68
18569;BME280;14780;48.316;-1.050;2024-02-14T05:27:26;99183.34;;;24.77;36.71
18569;BME280;14780;48.316;-1.050;2024-02-14T05:30:11;99185.56;;;24.80;36.61
18569;BME280;14780;48.316;-1.050;2024-02-14T05:32:56;99181.72;;;24.76;36.86
18569;BME280;14780;48.316;-1.050;2024-02-14T05:35:41;99175.19;;;24.72;36.83
18569;BME280;14780;48.316;-1.050;2024-02-14T05:38:25;99181.44;;;24.73;36.86
18569;BME280;14780;48.316;-1.050;2024-02-14T05:41:11;99183.34;;;24.77;36.71
18569;BME280;14780;48.316;-1.050;2024-02-14T05:43:56;99180.09;;;24.70;36.85
18569;BME280;14780;48.316;-1.050;2024-02-14T05:46:42;99181.19;;;24.69;36.78
18569;BME280;14780;48.316;-1.050;2024-02-14T05:49:27;99189.13;;;24.76;36.71
18569;BME280;14780;48.316;-1.050;2024-02-14T05:52:11;99194.34;;;24.72;36.76
18569;BME280;14780;48.316;-1.050;2024-02-14T05:54:56;99193.22;;;24.73;36.67
18569;BME280;14780;48.316;-1.050;2024-02-14T05:57:41;99199.50;;;24.74;36.78
18569;BME280;14780;48.316;-1.050;2024-02-14T06:00:25;99204.19;;;24.73;36.87
18569;BME280;14780;48.316;-1.050;2024-02-14T06:03:11;99203.91;;;24.70;36.81
18569;BME280;14780;48.316;-1.050;2024-02-14T06:05:56;99197.06;;;24.67;36.81
18569;BME280;14780;48.316;-1.050;2024-02-14T06:08:40;99203.91;;;24.70;36.77
18569;BME280;14780;48.316;-1.050;2024-02-14T06:11:25;99208.56;;;24.64;36.91
18569;BME280;14780;48.316;-1.050;2024-02-14T06:14:09;99207.47;;;24.65;37.02
18569;BME280;14780;48.316;-1.050;2024-02-14T06:16:55;99223.59;;;24.67;36.90
18569;BME280;14780;48.316;-1.050;2024-02-14T06:19:39;99227.69;;;24.69;37.02
18569;BME280;14780;48.316;-1.050;2024-02-14T06:22:24;99231.53;;;24.63;37.03
18569;BME280;14780;48.316;-1.050;2024-02-14T06:25:09;99225.25;;;24.68;37.55
18569;BME280;14780;48.316;-1.050;2024-02-14T06:27:54;99217.31;;;24.71;37.50
18569;BME280;14780;48.316;-1.050;2024-02-14T06:30:38;99232.34;;;24.74;37.56
18569;BME280;14780;48.316;-1.050;2024-02-14T06:33:23;99227.44;;;24.76;37.76
18569;BME280;14780;48.316;-1.050;2024-02-14T06:36:08;99220.59;;;24.73;37.91
18569;BME280;14780;48.316;-1.050;2024-02-14T06:38:52;99225.25;;;24.83;37.78
18569;BME280;14780;48.316;-1.050;2024-02-14T06:41:37;99228.78;;;24.83;37.80
18569;BME280;14780;48.316;-1.050;2024-02-14T06:44:22;99230.16;;;24.86;38.23
18569;BME280;14780;48.316;-1.050;2024-02-14T06:47:06;99225.50;;;24.86;38.29
18569;BME280;14780;48.316;-1.050;2024-02-14T06:49:51;99239.19;;;24.91;38.38
18569;BME280;14780;48.316;-1.050;2024-02-14T06:52:35;99229.88;;;24.92;38.30
18569;BME280;14780;48.316;-1.050;2024-02-14T06:55:20;99237.28;;;24.97;38.52
18569;BME280;14780;48.316;-1.050;2024-02-14T06:58:05;99245.47;;;25.02;38.61
18569;BME280;14780;48.316;-1.050;2024-02-14T07:00:49;99249.56;;;25.04;39.02
18569;BME280;14780;48.316;-1.050;2024-02-14T07:03:34;99266.53;;;25.06;39.23
18569;BME280;14780;48.316;-1.050;2024-02-14T07:06:19;99265.44;;;25.12;39.34
18569;BME280;14780;48.316;-1.050;2024-02-14T07:09:04;99257.75;;;25.19;38.92
18569;BME280;14780;48.316;-1.050;2024-02-14T07:11:48;99258.31;;;25.16;39.31
18569;BME280;14780;48.316;-1.050;2024-02-14T07:14:35;99266.81;;;25.15;39.65
18569;BME280;14780;48.316;-1.050;2024-02-14T07:17:20;99267.91;;;25.19;39.76
18569;BME280;14780;48.316;-1.050;2024-02-14T07:20:05;99269.28;;;25.16;39.64
18569;BME280;14780;48.316;-1.050;2024-02-14T07:22:53;99272.56;;;25.08;39.67
18569;BME280;14780;48.316;-1.050;2024-02-14T07:25:37;99273.94;;;25.11;39.41
18569;BME280;14780;48.316;-1.050;2024-02-14T07:28:22;99275.00;;;25.10;39.22
18569;BME280;14780;48.316;-1.050;2024-02-14T07:31:07;99284.59;;;25.12;39.03
18569;BME280;14780;48.316;-1.050;2024-02-14T07:33:51;99286.53;;;25.07;39.05
18569;BME280;14780;48.316;-1.050;2024-02-14T07:36:37;99282.69;;;25.08;38.77
18569;BME280;14780;48.316;-1.050;2024-02-14T07:39:22;99284.63;;;25.02;39.07
18569;BME280;14780;48.316;-1.050;2024-02-14T07:42:07;99286.25;;;25.03;38.97
18569;BME280;14780;48.316;-1.050;2024-02-14T07:44:51;99279.94;;;25.03;38.83
18569;BME280;14780;48.316;-1.050;2024-02-14T07:47:36;99282.97;;;25.01;38.64
18569;BME280;14780;48.316;-1.050;2024-02-14T07:50:20;99269.84;;;24.93;38.74
18569;BME280;14780;48.316;-1.050;2024-02-14T07:53:05;99269.28;;;24.91;38.83
18569;BME280;14780;48.316;-1.050;2024-02-14T07:55:51;99270.13;;;24.92;38.73
18569;BME280;14780;48.316;-1.050;2024-02-14T07:58:37;99282.16;;;24.91;38.81
18569;BME280;14780;48.316;-1.050;2024-02-14T08:01:21;99276.41;;;24.87;38.75
18569;BME280;14780;48.316;-1.050;2024-02-14T08:04:06;99281.34;;;24.85;38.77
18569;BME280;14780;48.316;-1.050;2024-02-14T08:06:50;99296.13;;;24.89;38.53
18569;BME280;14780;48.316;-1.050;2024-02-14T08:09:35;99301.06;;;24.87;38.76
18569;BME280;14780;48.316;-1.050;2024-02-14T08:12:21;99303.78;;;24.87;38.70
18569;BME280;14780;48.316;-1.050;2024-02-14T08:15:08;99309.25;;;24.92;38.59
18569;BME280;14780;48.316;-1.050;2024-02-14T08:17:53;99310.91;;;24.88;38.73
18569;BME280;14780;48.316;-1.050;2024-02-14T08:20:40;99309.81;;;24.94;38.57
18569;BME280;14780;48.316;-1.050;2024-02-14T08:23:25;99293.66;;;24.88;38.60
18569;BME280;14780;48.316;-1.050;2024-02-14T08:26:10;99297.75;;;24.90;38.57
18569;BME280;14780;48.316;-1.050;2024-02-14T08:28:55;99301.88;;;24.98;38.49
18569;BME280;14780;48.316;-1.050;2024-02-14T08:31:39;99299.94;;;24.98;38.26
18569;BME280;14780;48.316;-1.050;2024-02-14T08:34:24;99302.41;;;25.00;38.23
18569;BME280;14780;48.316;-1.050;2024-02-14T08:37:10;99308.44;;;24.97;38.23
18569;BME280;14780;48.316;-1.050;2024-02-14T08:39:56;99294.75;;;24.97;38.20
18569;BME280;14780;48.316;-1.050;2024-02-14T08:42:41;99301.59;;;24.94;38.20
18569;BME280;14780;48.316;-1.050;2024-02-14T08:45:27;99311.72;;;24.99;38.17
18569;BME280;14780;48.316;-1.050;2024-02-14T08:48:14;99305.41;;;24.98;38.11
18569;BME280;14780;48.316;-1.050;2024-02-14T08:50:59;99312.81;;;25.03;38.02
18569;BME280;14780;48.316;-1.050;2024-02-14T08:53:45;99310.34;;;25.01;38.06
18569;BME280;14780;48.316;-1.050;2024-02-14T08:56:32;99310.09;;;24.98;38.11
18569;BME280;14780;48.316;-1.050;2024-02-14T08:59:18;99305.97;;;24.95;38.22
18569;BME280;14780;48.316;-1.050;2024-02-14T09:02:04;99299.41;;;25.01;37.96
18569;BME280;14780;48.316;-1.050;2024-02-14T09:04:49;99304.88;;;25.01;37.93
18569;BME280;14780;48.316;-1.050;2024-02-14T09:07:35;99308.19;;;24.93;38.15
18569;BME280;14780;48.316;-1.050;2024-02-14T09:10:21;99304.88;;;24.91;37.85
18569;BME280;14780;48.316;-1.050;2024-02-14T09:13:06;99313.91;;;24.97;38.08
18569;BME280;14780;48.316;-1.050;2024-02-14T09:15:52;99314.72;;;24.97;37.96
18569;BME280;14780;48.316;-1.050;2024-02-14T09:18:37;99317.22;;;24.89;37.97
18569;BME280;14780;48.316;-1.050;2024-02-14T09:21:22;99314.75;;;24.87;37.96
18569;BME280;14780;48.316;-1.050;2024-02-14T09:24:07;99317.47;;;24.87;37.98
18569;BME280;14780;48.316;-1.050;2024-02-14T09:26:52;99315.53;;;24.88;38.02
18569;BME280;14780;48.316;-1.050;2024-02-14T09:29:36;99311.97;;;24.92;37.98
18569;BME280;14780;48.316;-1.050;2024-02-14T09:32:22;99325.69;;;24.87;38.05
18569;BME280;14780;48.316;-1.050;2024-02-14T09:35:07;99311.75;;;24.89;37.91
18569;BME280;14780;48.316;-1.050;2024-02-14T09:37:53;99311.72;;;24.84;38.09
18569;BME280;14780;48.316;-1.050;2024-02-14T09:40:37;99311.47;;;24.85;38.06
18569;BME280;14780;48.316;-1.050;2024-02-14T09:43:28;99313.63;;;24.83;38.11
18569;BME280;14780;48.316;-1.050;2024-02-14T09:46:17;99319.09;;;24.83;38.02
18569;BME280;14780;48.316;-1.050;2024-02-14T09:49:03;99319.13;;;24.88;38.09
18569;BME280;14780;48.316;-1.050;2024-02-14T09:51:48;99317.75;;;24.86;38.13
18569;BME280;14780;48.316;-1.050;2024-02-14T09:54:34;99313.38;;;24.90;37.91
18569;BME280;14780;48.316;-1.050;2024-02-14T09:57:19;99325.13;;;24.90;38.09
18569;BME280;14780;48.316;-1.050;2024-02-14T10:00:04;99315.81;;;24.91;37.89
18569;BME280;14780;48.316;-1.050;2024-02-14T10:02:50;99314.19;;;24.85;38.08
18569;BME280;14780;48.316;-1.050;2024-02-14T10:05:35;99319.38;;;24.87;38.00
18569;BME280;14780;48.316;-1.050;2024-02-14T10:08:19;99326.22;;;24.84;38.08
18569;BME280;14780;48.316;-1.050;2024-02-14T10:11:08;99326.75;;;24.91;38.19
18569;BME280;14780;48.316;-1.050;2024-02-14T10:13:55;99328.41;;;24.92;38.11
18569;BME280;14780;48.316;-1.050;2024-02-14T10:16:45;99327.31;;;24.98;37.93
18569;BME280;14780;48.316;-1.050;2024-02-14T10:19:30;99324.31;;;24.95;37.93
18569;BME280;14780;48.316;-1.050;2024-02-14T10:22:15;99320.75;;;24.94;37.84
18569;BME280;14780;48.316;-1.050;2024-02-14T10:24:59;99325.41;;;24.94;37.83
18569;BME280;14780;48.316;-1.050;2024-02-14T10:27:46;99324.88;;;24.97;37.85
18569;BME280;14780;48.316;-1.050;2024-02-14T10:30:32;99329.53;;;25.01;37.77
18569;BME280;14780;48.316;-1.050;2024-02-14T10:33:17;99332.25;;;25.01;37.78
18569;BME280;14780;48.316;-1.050;2024-02-14T10:36:05;99317.19;;;24.99;37.81
18569;BME280;14780;48.316;-1.050;2024-02-14T10:38:51;99324.31;;;25.00;37.76
18569;BME280;14780;48.316;-1.050;2024-02-14T10:41:37;99324.59;;;25.03;37.81
18569;BME280;14780;48.316;-1.050;2024-02-14T10:44:22;99320.75;;;24.99;37.70
18569;BME280;14780;48.316;-1.050;2024-02-14T10:47:10;99327.06;;;25.00;37.92
18569;BME280;14780;48.316;-1.050;2024-02-14T10:50:02;99313.09;;;24.96;37.89
18569;BME280;14780;48.316;-1.050;2024-02-14T10:52:49;99330.06;;;25.03;37.77
18569;BME280;14780;48.316;-1.050;2024-02-14T10:55:36;99327.31;;;25.03;37.58
18569;BME280;14780;48.316;-1.050;2024-02-14T10:58:24;99338.28;;;25.03;37.76
18569;BME280;14780;48.316;-1.050;2024-02-14T11:01:13;99331.16;;;24.97;37.90
18569;BME280;14780;48.316;-1.050;2024-02-14T11:04:00;99325.97;;;24.91;37.86
18569;BME280;14780;48.316;-1.050;2024-02-14T11:06:46;99340.19;;;24.98;37.79
18569;BME280;14780;48.316;-1.050;2024-02-14T11:09:38;99335.25;;;24.95;37.86
18569;BME280;14780;48.316;-1.050;2024-02-14T11:12:23;99336.63;;;24.97;37.86
18569;BME280;14780;48.316;-1.050;2024-02-14T11:15:20;99331.97;;;24.93;37.82
18569;BME280;14780;48.316;-1.050;2024-02-14T11:18:06;99341.56;;;25.00;37.71
18569;BME280;14780;48.316;-1.050;2024-02-14T11:20:52;99346.19;;;24.95;37.90
18569;BME280;14780;48.316;-1.050;2024-02-14T11:23:37;99353.03;;;24.92;37.86
18569;BME280;14780;48.316;-1.050;2024-02-14T11:26:21;99355.78;;;24.92;37.89
18569;BME280;14780;48.316;-1.050;2024-02-14T11:29:07;99348.13;;;24.94;37.94
18569;BME280;14780;48.316;-1.050;2024-02-14T11:31:58;99356.63;;;24.93;37.91
18569;BME280;14780;48.316;-1.050;2024-02-14T11:34:56;99355.25;;;24.95;37.94
18569;BME280;14780;48.316;-1.050;2024-02-14T11:37:41;99352.50;;;24.95;37.96
18569;BME280;14780;48.316;-1.050;2024-02-14T11:40:26;99359.63;;;24.86;38.24
18569;BME280;14780;48.316;-1.050;2024-02-14T11:43:13;99363.44;;;24.90;38.11
18569;BME280;14780;48.316;-1.050;2024-02-14T11:45:58;99361.00;;;24.89;38.11
18569;BME280;14780;48.316;-1.050;2024-02-14T11:48:44;99358.50;;;24.92;37.93
18569;BME280;14780;48.316;-1.050;2024-02-14T11:51:35;99358.81;;;24.91;38.04
18569;BME280;14780;48.316;-1.050;2024-02-14T11:54:22;99349.22;;;24.93;38.00
18569;BME280;14780;48.316;-1.050;2024-02-14T11:57:07;99345.66;;;24.93;38.04
18569;BME280;14780;48.316;-1.050;2024-02-14T11:59:55;99344.31;;;24.95;38.11
18569;BME280;14780;48.316;-1.050;2024-02-14T12:02:40;99349.22;;;24.98;38.02
18569;BME280;14780;48.316;-1.050;2024-02-14T12:05:25;99344.84;;;24.97;38.15
18569;BME280;14780;48.316;-1.050;2024-02-14T12:08:10;99338.25;;;24.98;38.06
18569;BME280;14780;48.316;-1.050;2024-02-14T12:10:55;99339.09;;;24.99;38.17
18569;BME280;14780;48.316;-1.050;2024-02-14T12:13:40;99329.50;;;25.06;38.07
18569;BME280;14780;48.316;-1.050;2024-02-14T12:16:28;99329.50;;;25.06;37.81
18569;BME280;14780;48.316;-1.050;2024-02-14T12:19:16;99332.81;;;25.08;37.85
18569;BME280;14780;48.316;-1.050;2024-02-14T12:22:01;99339.91;;;25.09;37.94
18569;BME280;14780;48.316;-1.050;2024-02-14T12:24:47;99334.44;;;25.09;37.90
18569;BME280;14780;48.316;-1.050;2024-02-14T12:27:37;99331.72;;;25.09;37.87
18569;BME280;14780;48.316;-1.050;2024-02-14T12:30:23;99327.34;;;25.08;38.06
18569;BME280;14780;48.316;-1.050;2024-02-14T12:33:07;99335.25;;;25.00;38.15
18569;BME280;14780;48.316;-1.050;2024-02-14T12:35:55;99331.69;;;25.04;37.98
18569;BME280;14780;48.316;-1.050;2024-02-14T12:38:40;99338.28;;;25.03;38.17
18569;BME280;14780;48.316;-1.050;2024-02-14T12:41:25;99330.88;;;25.14;37.83
18569;BME280;14780;48.316;-1.050;2024-02-14T12:44:11;99327.06;;;25.05;37.93
18569;BME280;14780;48.316;-1.050;2024-02-14T12:46:57;99326.75;;;25.06;37.97
18569;BME280;14780;48.316;-1.050;2024-02-14T12:49:42;99323.22;;;25.11;38.00
18569;BME280;14780;48.316;-1.050;2024-02-14T12:52:27;99327.59;;;25.02;38.09
18569;BME280;14780;48.316;-1.050;2024-02-14T12:55:12;99321.31;;;25.01;37.95
18569;BME280;14780;48.316;-1.050;2024-02-14T12:57:57;99313.38;;;25.00;37.96
18569;BME280;14780;48.316;-1.050;2024-02-14T13:00:42;99314.75;;;25.02;38.10
18569;BME280;14780;48.316;-1.050;2024-02-14T13:03:29;99312.53;;;25.04;38.02
18569;BME280;14780;48.316;-1.050;2024-02-14T13:06:13;99310.63;;;25.00;37.93
18569;BME280;14780;48.316;-1.050;2024-02-14T13:08:58;99308.16;;;25.03;37.91
18569;BME280;14780;48.316;-1.050;2024-02-14T13:11:44;99308.69;;;25.05;37.93
18569;BME280;14780;48.316;-1.050;2024-02-14T13:14:29;99310.06;;;25.08;37.89
18569;BME280;14780;48.316;-1.050;2024-02-14T13:17:18;99298.31;;;25.07;37.97
18569;BME280;14780;48.316;-1.050;2024-02-14T13:20:02;99293.38;;;25.09;37.87
18569;BME280;14780;48.316;-1.050;2024-02-14T13:22:47;99300.47;;;25.05;37.94
18569;BME280;14780;48.316;-1.050;2024-02-14T13:25:32;99287.91;;;25.04;37.85
18569;BME280;14780;48.316;-1.050;2024-02-14T13:28:17;99291.16;;;25.06;37.83
18569;BME280;14780;48.316;-1.050;2024-02-14T13:31:02;99285.97;;;25.10;37.73
18569;BME280;14780;48.316;-1.050;2024-02-14T13:33:47;99285.69;;;25.16;37.75
18569;BME280;14780;48.316;-1.050;2024-02-14T13:36:31;99282.44;;;25.14;37.77
18569;BME280;14780;48.316;-1.050;2024-02-14T13:39:16;99286.81;;;25.10;37.81
18569;BME280;14780;48.316;-1.050;2024-02-14T13:42:01;99290.34;;;25.16;37.61
18569;BME280;14780;48.316;-1.050;2024-02-14T13:44:46;99281.88;;;25.17;37.82
18569;BME280;14780;48.316;-1.050;2024-02-14T13:47:31;99281.88;;;25.17;37.68
18569;BME280;14780;48.316;-1.050;2024-02-14T13:50:16;99274.75;;;25.21;37.67
18569;BME280;14780;48.316;-1.050;2024-02-14T13:53:01;99273.38;;;25.19;37.67
18569;BME280;14780;48.316;-1.050;2024-02-14T13:55:46;99275.81;;;25.20;37.72
18569;BME280;14780;48.316;-1.050;2024-02-14T13:58:31;99278.84;;;25.24;37.70
18569;BME280;14780;48.316;-1.050;2024-02-14T14:01:16;99272.59;;;25.23;37.73
18569;BME280;14780;48.316;-1.050;2024-02-14T14:04:02;99268.75;;;25.29;37.61
18569;BME280;14780;48.316;-1.050;2024-02-14T14:06:48;99258.31;;;25.26;37.70
18569;BME280;14780;48.316;-1.050;2024-02-14T14:09:33;99253.09;;;25.30;37.61
18569;BME280;14780;48.316;-1.050;2024-02-14T14:12:17;99258.84;;;25.33;37.62
18569;BME280;14780;48.316;-1.050;2024-02-14T14:15:02;99256.13;;;25.38;37.66
18569;BME280;14780;48.316;-1.050;2024-02-14T14:17:47;99250.91;;;25.42;37.40
18569;BME280;14780;48.316;-1.050;2024-02-14T14:20:33;99245.69;;;25.40;37.50
18569;BME280;14780;48.316;-1.050;2024-02-14T14:23:18;99237.19;;;25.37;37.35
18569;BME280;14780;48.316;-1.050;2024-02-14T14:26:03;99235.81;;;25.44;37.24